Time;durP1;ratioP1;P1;durP2;ratioP2;P2;SDS_P1;SDS_P2;PMS_P1;PMS_P2;Temp;Humidity;BMP_temperature;BMP_pressure;BME280_temperature;BME280_humidity;BME280_pressure;Samples;Min_cycle;Max_cycle;Signal;HPM_P1;HPM_P2
2019/04/18 00:04:11;;;;;;;9.5;8.5;;;;;;;9.09;60.16699;965.2265;;;;
2019/04/18 00:06:42;;;;;;;9.1;7.9;;;;;;;9.04;60.61914;965.1971;;;;
2019/04/18 00:09:11;;;;;;;8.5;7.5;;;;;;;8.98;60.7959;965.1124;;;;
2019/04/18 00:11:40;;;;;;;12;8.7;;;;;;;8.94;60.94043;965.1591;;;;
2019/04/18 00:14:19;;;;;;;8.4;7.6;;;;;;;8.93;61.29395;965.1555;;;;
2019/04/18 00:16:46;;;;;;;8.8;7.8;;;;;;;8.86;61.84668;965.1881;;;;
2019/04/18 00:19:32;;;;;;;8.2;7.3;;;;;;;8.8;62.08105;965.1799;;;;
2019/04/18 00:21:58;;;;;;;8.4;7.6;;;;;;;8.8;62.17285;965.1328;;;;
2019/04/18 00:24:46;;;;;;;12.9;8.3;;;;;;;8.76;62.55859;965.1027;;;;
2019/04/18 00:27:11;;;;;;;8.8;7.9;;;;;;;8.69;63.01758;965.1345;;;;
2019/04/18 00:29:54;;;;;;;9;7.7;;;;;;;8.66;63.13965;965.0861;;;;
2019/04/18 00:32:30;;;;;;;8.8;7.9;;;;;;;8.67;63.30176;965.0344;;;;
2019/04/18 00:35:03;;;;;;;9;8.1;;;;;;;8.71;63.56152;965.0438;;;;
2019/04/18 00:37:50;;;;;;;8.8;7.9;;;;;;;8.69;63.62598;965.058;;;;
2019/04/18 00:42:57;;;;;;;10.7;8.4;;;;;;;8.63;64.61816;965.0078;;;;
2019/04/18 00:45:25;;;;;;;9;8.1;;;;;;;8.59;64.65723;965.0031;;;;
2019/04/18 00:47:57;;;;;;;9.1;8.2;;;;;;;8.57;64.50684;964.9236;;;;
2019/04/18 00:50:23;;;;;;;9;8.2;;;;;;;8.58;64.63281;964.8894;;;;
2019/04/18 00:52:48;;;;;;;9;8.2;;;;;;;8.56;64.74512;964.9164;;;;
2019/04/18 00:55:19;;;;;;;9.6;8.2;;;;;;;8.53;65.0166;964.8895;;;;
2019/04/18 00:58:01;;;;;;;9.7;8.4;;;;;;;8.5;65.24121;964.9303;;;;
2019/04/18 01:00:36;;;;;;;9.6;8.7;;;;;;;8.41;65.75684;964.9381;;;;
2019/04/18 01:03:14;;;;;;;9.6;8.2;;;;;;;8.38;65.99219;964.8897;;;;
2019/04/18 01:05:39;;;;;;;10.2;9.1;;;;;;;8.42;65.92871;964.8569;;;;
2019/04/18 01:08:04;;;;;;;10.4;8.3;;;;;;;8.43;65.99902;964.8856;;;;
2019/04/18 01:10:38;;;;;;;10.9;8.4;;;;;;;8.4;65.99512;964.8325;;;;
2019/04/18 01:13:06;;;;;;;9.3;8.5;;;;;;;8.3;66.71484;964.8625;;;;
2019/04/18 01:15:36;;;;;;;9.8;8.8;;;;;;;8.29;66.64453;964.8847;;;;
2019/04/18 01:18:02;;;;;;;10.9;9.7;;;;;;;8.22;66.9668;964.8054;;;;
2019/04/18 01:20:31;;;;;;;10.5;9.4;;;;;;;8.11;67.60352;964.7861;;;;
2019/04/18 01:23:04;;;;;;;9.7;8.8;;;;;;;8.18;67.32813;964.8516;;;;
2019/04/18 01:25:29;;;;;;;10.4;9.3;;;;;;;8.13;67.77832;964.8389;;;;
2019/04/18 01:27:54;;;;;;;11.1;9.2;;;;;;;8.09;67.80762;964.8295;;;;
2019/04/18 01:30:21;;;;;;;11.5;9.2;;;;;;;8.14;67.6543;964.8812;;;;
2019/04/18 01:33:03;;;;;;;10.2;9.2;;;;;;;8.08;67.75879;964.8436;;;;
2019/04/18 01:35:28;;;;;;;10.2;9.1;;;;;;;8;68.10352;964.8207;;;;
2019/04/18 01:38:02;;;;;;;10.1;9.1;;;;;;;7.96;68.23242;964.82;;;;
2019/04/18 01:40:32;;;;;;;9.7;8.3;;;;;;;7.93;68.38867;964.8953;;;;
2019/04/18 01:46:08;;;;;;;11.6;9.2;;;;;;;7.85;68.67383;964.8214;;;;
2019/04/18 01:48:24;;;;;;;10.6;9.5;;;;;;;7.85;68.73145;964.8508;;;;
2019/04/18 01:50:52;;;;;;;14.9;9.7;;;;;;;7.78;69.08691;964.8613;;;;
2019/04/18 01:53:34;;;;;;;10.1;9.1;;;;;;;7.74;69.41504;964.8215;;;;
2019/04/18 01:56:05;;;;;;;11;9.1;;;;;;;7.71;69.51172;964.8117;;;;
2019/04/18 01:58:30;;;;;;;10.9;9.7;;;;;;;7.65;69.99609;964.7825;;;;
2019/04/18 02:00:58;;;;;;;10.8;9.7;;;;;;;7.66;69.79102;964.7821;;;;
2019/04/18 02:03:23;;;;;;;10.3;9.3;;;;;;;7.62;70.15137;964.7941;;;;
2019/04/18 02:05:57;;;;;;;11.2;10;;;;;;;7.63;70.04883;964.8228;;;;
2019/04/18 02:08:22;;;;;;;11;9.9;;;;;;;7.63;70.33594;964.8356;;;;
2019/04/18 02:10:55;;;;;;;11.6;10.5;;;;;;;7.62;70.18359;964.8242;;;;
2019/04/18 02:13:21;;;;;;;11.1;10;;;;;;;7.57;70.3252;964.8409;;;;
2019/04/18 02:15:51;;;;;;;10.8;9.7;;;;;;;7.55;70.49414;964.8253;;;;
2019/04/18 02:18:32;;;;;;;11.1;10;;;;;;;7.55;70.77051;964.7911;;;;
2019/04/18 02:20:57;;;;;;;11.2;10.2;;;;;;;7.45;71.28027;964.825;;;;
2019/04/18 02:23:22;;;;;;;10.9;9.8;;;;;;;7.48;70.86133;964.844;;;;
2019/04/18 02:25:51;;;;;;;11.6;10.5;;;;;;;7.53;70.68652;964.7972;;;;
2019/04/18 02:28:17;;;;;;;11.4;10.2;;;;;;;7.45;71.16602;964.8378;;;;
2019/04/18 02:30:59;;;;;;;11.6;10.5;;;;;;;7.48;71.3877;964.7807;;;;
2019/04/18 02:33:28;;;;;;;12.6;11.3;;;;;;;7.48;71.3418;964.8317;;;;
2019/04/18 02:35:54;;;;;;;12.4;11.1;;;;;;;7.48;71.27344;964.8953;;;;
2019/04/18 02:38:20;;;;;;;12.6;11.3;;;;;;;7.48;71.21582;964.8102;;;;
2019/04/18 02:40:51;;;;;;;12.4;11.2;;;;;;;7.54;70.93848;964.8434;;;;
2019/04/18 02:43:19;;;;;;;12.7;11.4;;;;;;;7.48;71.21582;964.823;;;;
2019/04/18 02:45:45;;;;;;;12.9;11.5;;;;;;;7.44;71.40332;964.8606;;;;
2019/04/18 02:48:16;;;;;;;13.7;12.3;;;;;;;7.46;71.26855;964.8672;;;;
2019/04/18 02:50:42;;;;;;;12.9;11.7;;;;;;;7.42;71.48047;964.7941;;;;
2019/04/18 02:53:09;;;;;;;13.4;11.6;;;;;;;7.4;71.88965;964.8256;;;;
2019/04/18 02:55:42;;;;;;;13.8;12;;;;;;;7.35;72.01855;964.8211;;;;
2019/04/18 02:58:08;;;;;;;12.9;11.7;;;;;;;7.36;71.84766;964.863;;;;
2019/04/18 03:00:40;;;;;;;13.8;12.4;;;;;;;7.36;71.67676;964.8208;;;;
2019/04/18 03:03:01;;;;;;;13.8;12.4;;;;;;;7.35;71.80078;964.8339;;;;
2019/04/18 03:05:29;;;;;;;13.3;12;;;;;;;7.3;71.91895;964.8337;;;;
2019/04/18 03:08:00;;;;;;;15.5;12.9;;;;;;;7.29;71.76855;964.8599;;;;
2019/04/18 03:10:26;;;;;;;14.1;12.8;;;;;;;7.26;71.99316;964.8754;;;;
2019/04/18 03:12:57;;;;;;;14.6;13.1;;;;;;;7.17;72.43457;964.887;;;;
2019/04/18 03:15:38;;;;;;;14.1;12.6;;;;;;;7.17;72.34375;964.8318;;;;
2019/04/18 03:18:19;;;;;;;13.4;12.1;;;;;;;7.08;72.55762;964.8053;;;;
2019/04/18 03:20:57;;;;;;;14.4;13;;;;;;;7.08;72.71777;964.8434;;;;
2019/04/18 03:23:25;;;;;;;15.3;13.5;;;;;;;7.11;72.76953;964.8538;;;;
2019/04/18 03:25:52;;;;;;;14.9;13.3;;;;;;;7.05;72.85059;964.8805;;;;
2019/04/18 03:28:18;;;;;;;15;13.4;;;;;;;7.02;72.83398;964.8822;;;;
2019/04/18 03:30:59;;;;;;;15;13.5;;;;;;;6.98;73.28418;964.9322;;;;
2019/04/18 03:33:30;;;;;;;15.6;13.4;;;;;;;6.91;73.52246;964.9768;;;;
2019/04/18 03:35:55;;;;;;;15.3;13.7;;;;;;;6.97;73.12305;964.9161;;;;
2019/04/18 03:38:22;;;;;;;16.5;14.8;;;;;;;6.87;73.70117;964.9632;;;;
2019/04/18 03:40:53;;;;;;;15.2;13.6;;;;;;;6.83;73.70508;964.9194;;;;
2019/04/18 03:43:18;;;;;;;15.7;14.1;;;;;;;6.82;73.76172;965.0219;;;;
2019/04/18 03:48:21;;;;;;;16.5;14.9;;;;;;;6.71;73.9248;964.9802;;;;
2019/04/18 03:50:49;;;;;;;15.8;14.3;;;;;;;6.69;74.11621;965.0364;;;;
2019/04/18 03:53:15;;;;;;;17.5;15.1;;;;;;;6.75;73.93066;965.0066;;;;
2019/04/18 03:55:51;;;;;;;15.3;13.8;;;;;;;6.68;74.19336;965.0247;;;;
2019/04/18 03:58:09;;;;;;;16.4;14.7;;;;;;;6.62;74.41211;965.0084;;;;
2019/04/18 04:03:04;;;;;;;15.9;14.3;;;;;;;6.57;74.69043;965.063;;;;
2019/04/18 04:05:32;;;;;;;16.7;15;;;;;;;6.48;75.00488;965.1172;;;;
2019/04/18 04:08:01;;;;;;;16.3;14.7;;;;;;;6.45;75.22852;965.149;;;;
2019/04/18 04:10:26;;;;;;;17;15;;;;;;;6.48;75.1416;965.1092;;;;
2019/04/18 04:13:07;;;;;;;16.5;14.9;;;;;;;6.43;75.12305;965.1295;;;;
2019/04/18 04:15:36;;;;;;;16.1;14.6;;;;;;;6.47;75.30078;965.1942;;;;
2019/04/18 04:20:32;;;;;;;16.8;15.1;;;;;;;6.41;75.59766;965.1694;;;;
2019/04/18 04:23:01;;;;;;;16.5;14.9;;;;;;;6.4;75.71191;965.1319;;;;
2019/04/18 04:25:37;;;;;;;17.5;15.7;;;;;;;6.41;75.91797;965.14;;;;
2019/04/18 04:28:06;;;;;;;17.1;15.5;;;;;;;6.44;75.85449;965.1376;;;;
2019/04/18 04:30:45;;;;;;;18.2;16.3;;;;;;;6.43;76.04883;965.1509;;;;
2019/04/18 04:33:10;;;;;;;17.7;16;;;;;;;6.38;76.30176;965.1975;;;;
2019/04/18 04:35:41;;;;;;;17.9;16.1;;;;;;;6.41;76.3291;965.2369;;;;
2019/04/18 04:38:06;;;;;;;28.4;18;;;;;;;6.43;76.09473;965.2186;;;;
2019/04/18 04:40:34;;;;;;;18;16.1;;;;;;;6.43;75.99121;965.1509;;;;
2019/04/18 04:43:02;;;;;;;17.9;16.1;;;;;;;6.44;75.99316;965.1965;;;;
2019/04/18 04:45:28;;;;;;;17.8;16;;;;;;;6.47;76.22656;965.2369;;;;
2019/04/18 04:50:45;;;;;;;18.3;16.5;;;;;;;6.53;76.12305;965.274;;;;
2019/04/18 04:53:14;;;;;;;19;17.1;;;;;;;6.54;76.2959;965.3069;;;;
2019/04/18 04:55:40;;;;;;;18.3;16.5;;;;;;;6.55;76.00098;965.3149;;;;
2019/04/18 04:58:11;;;;;;;20.3;17;;;;;;;6.67;75.81543;965.3561;;;;
2019/04/18 05:00:44;;;;;;;18.2;16.3;;;;;;;6.73;75.7002;965.3303;;;;
2019/04/18 05:03:10;;;;;;;19.1;16.9;;;;;;;6.79;75.25391;965.4186;;;;
2019/04/18 05:05:43;;;;;;;18.2;16.4;;;;;;;6.81;75.28027;965.4252;;;;
2019/04/18 05:08:17;;;;;;;17.4;15.6;;;;;;;6.87;74.79883;965.4292;;;;
2019/04/18 05:10:46;;;;;;;17.6;15.7;;;;;;;6.84;75.0791;965.4149;;;;
2019/04/18 05:13:22;;;;;;;17.2;15.6;;;;;;;6.95;74.46973;965.4692;;;;
2019/04/18 05:15:50;;;;;;;19.1;17.1;;;;;;;6.98;74.49707;965.5349;;;;
2019/04/18 05:18:15;;;;;;;18.6;16.8;;;;;;;7.02;74.40039;965.6122;;;;
2019/04/18 05:20:45;;;;;;;18.3;16.5;;;;;;;7.14;73.67871;965.6189;;;;
2019/04/18 05:23:10;;;;;;;17.9;16.1;;;;;;;7.24;73.42188;965.6194;;;;
2019/04/18 05:25:41;;;;;;;18;16.2;;;;;;;7.25;73.82227;965.6656;;;;
2019/04/18 05:28:08;;;;;;;16.9;15.2;;;;;;;7.28;73.43945;965.6203;;;;
2019/04/18 05:30:33;;;;;;;18.3;15.8;;;;;;;7.38;72.96191;965.6804;;;;
2019/04/18 05:33:06;;;;;;;17.7;15.9;;;;;;;7.47;72.44043;965.7062;;;;
2019/04/18 05:35:32;;;;;;;17.3;15.5;;;;;;;7.52;72.91895;965.685;;;;
2019/04/18 05:38:03;;;;;;;16.4;14.6;;;;;;;7.63;72.09961;965.6937;;;;
2019/04/18 05:40:32;;;;;;;16.8;15.1;;;;;;;7.71;71.9541;965.7208;;;;
2019/04/18 05:42:57;;;;;;;17.7;15.9;;;;;;;7.74;71.77441;965.7522;;;;
2019/04/18 05:45:34;;;;;;;17.8;16;;;;;;;7.75;72.02832;965.7599;;;;
2019/04/18 05:48:07;;;;;;;16.8;15.1;;;;;;;7.86;71.62402;965.7461;;;;
2019/04/18 05:50:30;;;;;;;17.2;15.4;;;;;;;7.91;71.2627;965.7548;;;;
2019/04/18 05:53:04;;;;;;;16.8;15.1;;;;;;;7.91;71.26465;965.7844;;;;
2019/04/18 05:55:23;;;;;;;16.1;14.5;;;;;;;7.98;70.65625;965.825;;;;
2019/04/18 05:58:11;;;;;;;16.8;15.2;;;;;;;8.06;70.6582;965.8184;;;;
2019/04/18 06:03:07;;;;;;;16.1;14.4;;;;;;;8.18;70.19531;965.9272;;;;
2019/04/18 06:08:01;;;;;;;16.9;15.1;;;;;;;8.35;69.99316;965.9807;;;;
2019/04/18 06:10:22;;;;;;;16.1;14.5;;;;;;;8.38;69.62012;965.9992;;;;
2019/04/18 06:12:55;;;;;;;15.9;14.3;;;;;;;8.48;69.28027;966.0207;;;;
2019/04/18 06:18:01;;;;;;;16.4;14.8;;;;;;;8.54;69.23145;966.0112;;;;
2019/04/18 06:20:20;;;;;;;17.8;14.7;;;;;;;8.7;68.79785;965.9631;;;;
2019/04/18 06:22:49;;;;;;;16.7;15;;;;;;;8.75;68.2998;965.9846;;;;
2019/04/18 06:25:23;;;;;;;15.4;13.9;;;;;;;8.84;68.24805;965.9462;;;;
2019/04/18 06:27:48;;;;;;;16.4;14.7;;;;;;;8.94;68.23828;965.9078;;;;
2019/04/18 06:30:19;;;;;;;15.6;14;;;;;;;9.01;67.90527;965.9361;;;;
2019/04/18 06:32:50;;;;;;;16.5;14.9;;;;;;;8.98;67.65918;965.9851;;;;
2019/04/18 06:35:16;;;;;;;16.9;15.1;;;;;;;9.13;67.29199;965.9844;;;;
2019/04/18 06:37:44;;;;;;;16.7;14.8;;;;;;;9.21;66.93652;965.9861;;;;
2019/04/18 06:40:09;;;;;;;16.2;14.6;;;;;;;9.38;66.62793;965.971;;;;
2019/04/18 06:42:34;;;;;;;15.6;14;;;;;;;9.34;66.30176;965.9955;;;;
2019/04/18 06:44:59;;;;;;;15.7;14.2;;;;;;;9.45;65.89258;965.9857;;;;
2019/04/18 06:47:41;;;;;;;16.2;14.7;;;;;;;9.49;65.70215;965.9607;;;;
2019/04/18 06:50:15;;;;;;;15.8;14.1;;;;;;;9.58;65.6582;965.9867;;;;
2019/04/18 06:52:59;;;;;;;15.9;14.4;;;;;;;9.68;65.13184;965.9264;;;;
2019/04/18 06:55:26;;;;;;;15.2;13.6;;;;;;;9.75;64.87793;965.9537;;;;
2019/04/18 06:57:57;;;;;;;14.9;13.4;;;;;;;9.87;64.34375;965.9598;;;;
2019/04/18 07:00:22;;;;;;;15.7;13.5;;;;;;;10;64.59277;965.9734;;;;
2019/04/18 07:02:56;;;;;;;15;13.2;;;;;;;10.09;63.37402;965.9436;;;;
2019/04/18 07:05:23;;;;;;;16;12.7;;;;;;;10.21;63.55078;965.9286;;;;
2019/04/18 07:08:16;;;;;;;14.4;12.9;;;;;;;10.29;63.11426;965.9467;;;;
2019/04/18 07:10:37;;;;;;;15.5;13.6;;;;;;;10.43;62.81152;965.9632;;;;
2019/04/18 07:13:00;;;;;;;15.3;13.7;;;;;;;10.39;62.00879;965.9292;;;;
2019/04/18 07:15:28;;;;;;;14.3;12.8;;;;;;;10.43;60.75781;965.9632;;;;
2019/04/18 07:18:10;;;;;;;13.9;12.4;;;;;;;10.46;60.94629;965.978;;;;
2019/04/18 07:20:39;;;;;;;12.9;11.7;;;;;;;10.58;61.27539;966.0133;;;;
2019/04/18 07:23:26;;;;;;;13.5;11.6;;;;;;;10.72;60.38379;966.0165;;;;
2019/04/18 07:25:47;;;;;;;14.3;12.3;;;;;;;10.95;59.06348;965.9735;;;;
2019/04/18 07:28:26;;;;;;;13.1;11.8;;;;;;;10.9;59.33496;966.0251;;;;
2019/04/18 07:30:51;;;;;;;12.9;11.7;;;;;;;10.98;59.65625;966.0176;;;;
2019/04/18 07:33:16;;;;;;;13.1;11.7;;;;;;;11.12;59.15625;966.0981;;;;
2019/04/18 07:35:41;;;;;;;13.2;11.9;;;;;;;11.16;59.03516;966.0215;;;;
2019/04/18 07:38:15;;;;;;;14.3;11.7;;;;;;;11.28;59.22559;966.0991;;;;
2019/04/18 07:40:46;;;;;;;11.9;10.8;;;;;;;11.31;57.80566;966.1523;;;;
2019/04/18 07:43:11;;;;;;;12.3;11.1;;;;;;;11.34;56.86328;966.0636;;;;
2019/04/18 07:45:37;;;;;;;12.5;11.2;;;;;;;11.32;56.73242;966.0954;;;;
2019/04/18 07:48:03;;;;;;;12;10.8;;;;;;;11.54;56.83105;966.1168;;;;
2019/04/18 07:50:28;;;;;;;12.6;10.9;;;;;;;11.74;55.30664;966.1052;;;;
2019/04/18 07:53:06;;;;;;;12.9;11.5;;;;;;;11.84;55.60938;966.0826;;;;
2019/04/18 07:55:36;;;;;;;14.3;10.8;;;;;;;11.97;55.66113;966.0953;;;;
2019/04/18 07:58:00;;;;;;;14.4;12.1;;;;;;;12.13;55.65723;966.1818;;;;
2019/04/18 08:00:32;;;;;;;12.2;10.9;;;;;;;12.11;54.70605;966.0982;;;;
2019/04/18 08:02:57;;;;;;;12.5;11.2;;;;;;;12.1;55.00586;966.0862;;;;
2019/04/18 08:05:26;;;;;;;12;10.7;;;;;;;12.14;54.25879;966.185;;;;
2019/04/18 08:08:11;;;;;;;12.4;11.1;;;;;;;12.24;54.62891;966.1106;;;;
2019/04/18 08:10:46;;;;;;;13.9;11.4;;;;;;;12.44;53.95996;966.1113;;;;
2019/04/18 08:13:21;;;;;;;12.5;11.2;;;;;;;12.54;54.42383;966.1058;;;;
2019/04/18 08:15:50;;;;;;;12.8;11.1;;;;;;;12.57;53.22266;966.0511;;;;
2019/04/18 08:18:15;;;;;;;12.8;11.5;;;;;;;12.61;53.90039;966.1362;;;;
2019/04/18 08:20:40;;;;;;;12.2;11;;;;;;;12.59;54.18555;966.1052;;;;
2019/04/18 08:23:12;;;;;;;15.2;11.4;;;;;;;12.81;53.86621;966.0179;;;;
2019/04/18 08:25:37;;;;;;;14.4;11.5;;;;;;;12.99;52.3457;966.0629;;;;
2019/04/18 08:28:04;;;;;;;15.2;11.4;;;;;;;13.19;53.10059;966.0249;;;;
2019/04/18 08:30:30;;;;;;;12.1;10.8;;;;;;;13.35;52.41309;966.0806;;;;
2019/04/18 08:33:01;;;;;;;12.8;11.4;;;;;;;13.42;51.61914;966.0862;;;;
2019/04/18 08:35:28;;;;;;;13.7;12.3;;;;;;;13.52;52.72266;966.024;;;;
2019/04/18 08:37:55;;;;;;;14.6;11.9;;;;;;;13.44;52.70117;966.0114;;;;
2019/04/18 08:42:55;;;;;;;18;12.3;;;;;;;13.67;52.69434;966.0381;;;;
2019/04/18 08:45:22;;;;;;;12.7;11.5;;;;;;;13.79;51.2207;966.0042;;;;
2019/04/18 08:47:40;;;;;;;15.2;12.8;;;;;;;13.9;51.69922;965.9878;;;;
2019/04/18 08:50:11;;;;;;;15.1;12;;;;;;;13.78;51.24316;965.9495;;;;
2019/04/18 08:52:31;;;;;;;14.1;12.3;;;;;;;13.92;52.43262;966.0247;;;;
2019/04/18 08:55:00;;;;;;;14.8;12.5;;;;;;;14;50.62891;965.972;;;;
2019/04/18 08:57:21;;;;;;;14.6;11.9;;;;;;;14.36;51.8584;965.976;;;;
2019/04/18 08:59:57;;;;;;;14.9;12.3;;;;;;;14.29;50.48828;965.9576;;;;
2019/04/18 09:02:28;;;;;;;15.6;12.5;;;;;;;14.26;52.27637;966.0128;;;;
2019/04/18 09:04:53;;;;;;;15.3;12.9;;;;;;;14.38;51.2666;965.9564;;;;
2019/04/18 09:07:29;;;;;;;15.3;12.2;;;;;;;14.5;52.04883;965.9738;;;;
2019/04/18 09:09:54;;;;;;;14.6;12.4;;;;;;;14.62;50.25879;966.0336;;;;
2019/04/18 09:12:19;;;;;;;14.2;12.7;;;;;;;14.74;50.90234;966.1013;;;;
2019/04/18 09:14:46;;;;;;;16.1;12.8;;;;;;;14.66;49.9375;966.0284;;;;
2019/04/18 09:17:12;;;;;;;16.6;13;;;;;;;14.67;50.64844;966.0701;;;;
2019/04/18 09:19:43;;;;;;;16.9;13;;;;;;;14.6;49.76563;965.9885;;;;
2019/04/18 09:22:14;;;;;;;16.9;13.3;;;;;;;14.62;49.8623;965.9731;;;;
2019/04/18 09:24:39;;;;;;;16;13.1;;;;;;;14.97;50.27539;965.9464;;;;
2019/04/18 09:27:29;;;;;;;18;13.3;;;;;;;15.39;49.79883;965.933;;;;
2019/04/18 09:29:54;;;;;;;16.1;11.7;;;;;;;15.44;46.09277;965.9575;;;;
2019/04/18 09:32:25;;;;;;;13.5;11.7;;;;;;;15.24;48.56836;965.9933;;;;
2019/04/18 09:35:12;;;;;;;13.8;12.3;;;;;;;15.51;48.44727;966.027;;;;
2019/04/18 09:37:49;;;;;;;14.2;11.3;;;;;;;15.71;47.53516;965.9606;;;;
2019/04/18 09:40:14;;;;;;;13.9;10.9;;;;;;;16.08;45.68164;965.9138;;;;
2019/04/18 09:42:55;;;;;;;15.2;12.2;;;;;;;16.05;45.30469;965.9601;;;;
2019/04/18 09:45:32;;;;;;;12.1;10.9;;;;;;;16.34;44.98438;965.8524;;;;
2019/04/18 09:47:57;;;;;;;15.5;10.2;;;;;;;16.24;44.61133;965.9374;;;;
2019/04/18 09:50:25;;;;;;;11.6;10.4;;;;;;;16.46;45.45215;965.9886;;;;
2019/04/18 09:53:10;;;;;;;13.2;11.4;;;;;;;16.53;45.70508;965.8681;;;;
2019/04/18 09:55:43;;;;;;;11.9;10.7;;;;;;;16.65;45.22656;965.8933;;;;
2019/04/18 09:58:28;;;;;;;13;11;;;;;;;16.5;44.07715;965.8717;;;;
2019/04/18 10:00:58;;;;;;;12.8;10.5;;;;;;;16.8;43.97754;965.8839;;;;
2019/04/18 10:03:39;;;;;;;15.8;10.5;;;;;;;16.69;43.24023;965.9013;;;;
2019/04/18 10:06:15;;;;;;;15.1;10.2;;;;;;;17.26;43.17969;965.8965;;;;
2019/04/18 10:08:59;;;;;;;15.5;10.4;;;;;;;17.24;40.66992;965.7054;;;;
2019/04/18 10:11:47;;;;;;;11.7;9.8;;;;;;;17.63;41.69238;965.8375;;;;
2019/04/18 10:14:33;;;;;;;14.1;10.7;;;;;;;17.27;41.18945;965.8431;;;;
2019/04/18 10:16:58;;;;;;;12.3;10.4;;;;;;;17.81;42.91699;965.7213;;;;
2019/04/18 10:19:33;;;;;;;13.3;9.6;;;;;;;17.77;41.14258;965.7777;;;;
2019/04/18 10:22:19;;;;;;;12.4;10.2;;;;;;;18.28;42.9043;965.7349;;;;
2019/04/18 10:24:45;;;;;;;12.7;10.3;;;;;;;17.86;39.30859;965.7314;;;;
2019/04/18 10:27:14;;;;;;;14.5;10.8;;;;;;;17.74;40.1416;965.7167;;;;
2019/04/18 10:29:37;;;;;;;13.5;10.8;;;;;;;18.36;40.80957;965.6553;;;;
2019/04/18 10:31:59;;;;;;;11.7;10.5;;;;;;;17.73;41.61914;965.6876;;;;
2019/04/18 10:34:23;;;;;;;12.8;11;;;;;;;18.14;39.93164;965.622;;;;
2019/04/18 10:36:50;;;;;;;11.5;10.4;;;;;;;18.49;41.12793;965.6686;;;;
2019/04/18 10:39:15;;;;;;;13.7;11.2;;;;;;;18.16;40.4502;965.6121;;;;
2019/04/18 10:41:53;;;;;;;14.9;11.8;;;;;;;18.12;40.81055;965.574;;;;
2019/04/18 10:44:28;;;;;;;11.8;10.6;;;;;;;18.08;41.28906;965.6347;;;;
2019/04/18 10:46:59;;;;;;;12.9;10.9;;;;;;;18.94;41.79297;965.6714;;;;
2019/04/18 10:49:29;;;;;;;12.8;10.3;;;;;;;19.05;39.81445;965.6926;;;;
2019/04/18 10:51:53;;;;;;;17;10.8;;;;;;;18.69;39.75879;965.6655;;;;
2019/04/18 10:54:21;;;;;;;11.6;10.4;;;;;;;19.05;39.88477;965.7145;;;;
2019/04/18 10:56:51;;;;;;;13.5;10.6;;;;;;;19.19;38.72168;965.6995;;;;
2019/04/18 10:59:28;;;;;;;11.2;10.1;;;;;;;19.43;36.49219;965.6772;;;;
2019/04/18 11:02:19;;;;;;;14;10;;;;;;;19.37;37.74805;965.7622;;;;
2019/04/18 11:04:54;;;;;;;13.1;10;;;;;;;19.35;38.8291;965.7563;;;;
2019/04/18 11:07:22;;;;;;;13.8;10.5;;;;;;;19.4;38.08008;965.6764;;;;
2019/04/18 11:09:47;;;;;;;12.7;10;;;;;;;19.15;37.82324;965.6655;;;;
2019/04/18 11:12:14;;;;;;;12.4;10;;;;;;;19.49;37.9707;965.6772;;;;
2019/04/18 11:14:39;;;;;;;11.4;10.2;;;;;;;19.71;38.86133;965.5842;;;;
2019/04/18 11:17:18;;;;;;;20.1;10.1;;;;;;;20.05;37.86523;965.6117;;;;
2019/04/18 11:19:50;;;;;;;11.5;9;;;;;;;20.06;37.25293;965.6149;;;;
2019/04/18 11:22:25;;;;;;;12.8;8.9;;;;;;;20.37;34.19922;965.5034;;;;
2019/04/18 11:24:49;;;;;;;12.6;9.4;;;;;;;20.4;36.00684;965.529;;;;
2019/04/18 11:27:21;;;;;;;12.2;9.5;;;;;;;20.17;36.2002;965.4833;;;;
2019/04/18 11:29:50;;;;;;;9.6;8.2;;;;;;;20.49;34.13672;965.5608;;;;
2019/04/18 11:32:21;;;;;;;10.7;8.7;;;;;;;20.46;33.4375;965.3879;;;;
2019/04/18 11:35:03;;;;;;;12.3;8.4;;;;;;;21.13;33.19336;965.4722;;;;
2019/04/18 11:37:33;;;;;;;9.2;8.3;;;;;;;21.47;32.10742;965.5204;;;;
2019/04/18 11:40:02;;;;;;;11.3;8.6;;;;;;;21.71;30.73926;965.4998;;;;
2019/04/18 11:42:39;;;;;;;10.2;8.6;;;;;;;21.06;35.0791;965.4476;;;;
2019/04/18 11:45:05;;;;;;;14.1;8.8;;;;;;;20.74;33.71973;965.4352;;;;
2019/04/18 11:47:31;;;;;;;12;8.6;;;;;;;21.01;33.79883;965.4982;;;;
2019/04/18 11:50:00;;;;;;;11.2;8.2;;;;;;;20.47;33.75781;965.4767;;;;
2019/04/18 11:52:27;;;;;;;11.8;7.9;;;;;;;21.13;33.57227;965.334;;;;
2019/04/18 11:54:52;;;;;;;10.7;8.7;;;;;;;20.55;33.33789;965.4106;;;;
2019/04/18 11:57:17;;;;;;;11.9;8.4;;;;;;;20.29;35.51367;965.4149;;;;
2019/04/18 12:00:21;;;;;;;13.9;8.8;;;;;;;19.8;36.39355;965.382;;;;
2019/04/18 12:02:36;;;;;;;15.1;8.5;;;;;;;19.66;35.52246;965.4384;;;;
2019/04/18 12:05:02;;;;;;;11.5;8.4;;;;;;;20.4;34.48438;965.3989;;;;
2019/04/18 12:07:25;;;;;;;11.7;8;;;;;;;21.19;33.71777;965.3735;;;;
2019/04/18 12:09:57;;;;;;;11.7;8.1;;;;;;;21.25;33.67578;965.4381;;;;
2019/04/18 12:12:42;;;;;;;16.4;8.4;;;;;;;20.34;34.10156;965.4086;;;;
2019/04/18 12:15:05;;;;;;;16.3;8.6;;;;;;;20.37;33.57324;965.4514;;;;
2019/04/18 12:17:40;;;;;;;10.1;7.9;;;;;;;20.42;34.92285;965.4011;;;;
2019/04/18 12:20:03;;;;;;;10.1;7.6;;;;;;;21.05;33.84961;965.4149;;;;
2019/04/18 12:22:30;;;;;;;9.4;7.9;;;;;;;21.19;32.81934;965.4425;;;;
2019/04/18 12:25:06;;;;;;;9;7.5;;;;;;;22.34;32.77441;965.3229;;;;
2019/04/18 12:27:38;;;;;;;9.8;7.3;;;;;;;22.09;30.56348;965.368;;;;
2019/04/18 12:30:07;;;;;;;10.4;7.8;;;;;;;21.86;31.5791;965.4088;;;;
2019/04/18 12:32:35;;;;;;;10.3;8.3;;;;;;;21.21;32.12402;965.4095;;;;
2019/04/18 12:35:01;;;;;;;9.9;7.7;;;;;;;20.68;33.51465;965.3878;;;;
2019/04/18 12:37:26;;;;;;;10.6;7;;;;;;;21.2;31.64941;965.3373;;;;
2019/04/18 12:39:52;;;;;;;8.9;7.4;;;;;;;21.29;33.11133;965.3024;;;;
2019/04/18 12:42:34;;;;;;;12.5;7.6;;;;;;;20.62;33.62695;965.3439;;;;
2019/04/18 12:45:05;;;;;;;8.1;6.9;;;;;;;20.15;34.0752;965.3386;;;;
2019/04/18 12:47:33;;;;;;;7.7;6.7;;;;;;;21.03;32.57129;965.343;;;;
2019/04/18 12:50:02;;;;;;;12.7;7.3;;;;;;;21.25;31.41699;965.304;;;;
2019/04/18 12:52:27;;;;;;;9;7;;;;;;;20.55;31.93457;965.3666;;;;
2019/04/18 12:55:05;;;;;;;8.4;6.1;;;;;;;21.36;31.67383;965.3192;;;;
2019/04/18 12:57:30;;;;;;;8.2;6.3;;;;;;;22.17;31.44629;965.291;;;;
2019/04/18 13:00:33;;;;;;;12.2;6.9;;;;;;;21.58;31.59375;965.2878;;;;
2019/04/18 13:03:01;;;;;;;9.9;6.9;;;;;;;22.64;30.1748;965.2534;;;;
2019/04/18 13:05:30;;;;;;;8.2;6.4;;;;;;;22.87;29.79883;965.3542;;;;
2019/04/18 13:08:14;;;;;;;9.4;6.5;;;;;;;23.53;27.47754;965.279;;;;
2019/04/18 13:15:44;;;;;;;8.8;6;;;;;;;24.32;25.51465;965.199;;;;
2019/04/18 13:18:09;;;;;;;7.1;5.4;;;;;;;23.15;27.63281;965.1823;;;;
2019/04/18 13:20:36;;;;;;;9.3;5.6;;;;;;;22.85;28.17188;965.2703;;;;
2019/04/18 13:23:13;;;;;;;6.5;5.9;;;;;;;22.06;29.41309;965.2372;;;;
2019/04/18 13:25:34;;;;;;;9.2;6.6;;;;;;;21.87;29.58984;965.2335;;;;
2019/04/18 13:28:07;;;;;;;7.4;6;;;;;;;22.09;29.30859;965.2938;;;;
2019/04/18 13:30:35;;;;;;;7.1;5.7;;;;;;;23.45;26.99805;965.1898;;;;
2019/04/18 13:32:56;;;;;;;8;5.1;;;;;;;23.01;25.95117;965.1984;;;;
2019/04/18 13:35:22;;;;;;;9.3;4.5;;;;;;;22.31;28.12598;965.1928;;;;
2019/04/18 13:37:49;;;;;;;6.7;4.2;;;;;;;22.56;26.95605;965.2123;;;;
2019/04/18 13:40:15;;;;;;;7.4;4.5;;;;;;;23.76;25.3877;965.2839;;;;
2019/04/18 13:42:42;;;;;;;5;4;;;;;;;23.63;24.47656;965.2327;;;;
2019/04/18 13:45:07;;;;;;;6.1;5.3;;;;;;;23.43;24.57227;965.2548;;;;
2019/04/18 13:47:34;;;;;;;4.9;3.8;;;;;;;24.63;23.3877;965.1772;;;;
2019/04/18 13:50:00;;;;;;;4.9;3.8;;;;;;;24.78;23.19336;965.1533;;;;
2019/04/18 13:52:25;;;;;;;5.2;3.7;;;;;;;24.29;24.00098;965.1409;;;;
2019/04/18 13:54:56;;;;;;;6.6;4.4;;;;;;;24.62;23.11328;965.1038;;;;
2019/04/18 13:57:26;;;;;;;8.5;4.7;;;;;;;23.83;23.3457;965.156;;;;
2019/04/18 13:59:51;;;;;;;6.3;4.9;;;;;;;24.43;23.79395;965.1594;;;;
2019/04/18 14:02:19;;;;;;;8.2;5.4;;;;;;;24.47;23.90332;965.1404;;;;
2019/04/18 14:04:44;;;;;;;5.5;5;;;;;;;24.36;25.62402;965.2103;;;;
2019/04/18 14:07:11;;;;;;;5.7;5.2;;;;;;;24.53;24.60938;965.0789;;;;
2019/04/18 14:09:37;;;;;;;6.2;4.8;;;;;;;24.64;24.68652;965.1799;;;;
2019/04/18 14:12:03;;;;;;;6.9;5.4;;;;;;;24.02;25.42578;965.191;;;;
2019/04/18 14:14:29;;;;;;;9;5.2;;;;;;;23.72;25.25391;965.1942;;;;
2019/04/18 14:16:53;;;;;;;6.9;4.8;;;;;;;22.58;26.85059;965.1882;;;;
2019/04/18 14:19:19;;;;;;;5.9;4.8;;;;;;;22;27.56152;965.1545;;;;
2019/04/18 14:21:45;;;;;;;8.1;4.9;;;;;;;21.53;28.23047;965.1742;;;;
2019/04/18 14:24:15;;;;;;;7.3;5;;;;;;;20.53;29.41797;965.1474;;;;
2019/04/18 14:26:41;;;;;;;7.2;4.7;;;;;;;19.89;30.95508;965.2087;;;;
2019/04/18 14:29:08;;;;;;;9.1;4.4;;;;;;;20.18;30.30273;965.1703;;;;
2019/04/18 14:31:33;;;;;;;8.5;4.8;;;;;;;20.56;30.23438;965.2303;;;;
2019/04/18 14:33:59;;;;;;;7.7;4.6;;;;;;;20.5;30.13574;965.1829;;;;
2019/04/18 14:36:25;;;;;;;7;5;;;;;;;20.84;29.80566;965.1481;;;;
2019/04/18 14:39:06;;;;;;;7.8;4.8;;;;;;;21.81;28.74512;965.2029;;;;
2019/04/18 14:41:40;;;;;;;5.6;4.5;;;;;;;22.02;29.28027;965.1814;;;;
2019/04/18 14:44:07;;;;;;;7.9;4.7;;;;;;;22.83;27.71973;965.1731;;;;
2019/04/18 14:46:36;;;;;;;7.7;5.2;;;;;;;23.98;25.78027;965.181;;;;
2019/04/18 14:49:16;;;;;;;8.9;4.7;;;;;;;23.6;26.50781;965.1774;;;;
2019/04/18 14:51:48;;;;;;;7.1;4.7;;;;;;;22.86;27.13965;965.0864;;;;
2019/04/18 14:54:10;;;;;;;7.4;4.3;;;;;;;23.65;25.52441;965.1564;;;;
2019/04/18 14:56:42;;;;;;;7.4;4.4;;;;;;;23.84;26.20117;965.1888;;;;
2019/04/18 14:59:27;;;;;;;8.2;4.4;;;;;;;23.58;26.53027;965.2408;;;;
2019/04/18 15:01:57;;;;;;;6.6;4.6;;;;;;;23.04;26.37891;965.1299;;;;
2019/04/18 15:04:23;;;;;;;7.2;4.3;;;;;;;24.19;24.7334;965.1654;;;;